Map

Track Data

SID SEASON NUMBER BASIN SUBBASIN NAME ISO_TIME NATURE LAT LON WMO_WIND WMO_PRES WMO_AGENCY TRACK_TYPE DIST2LAND LANDFALL IFLAG USA_AGENCY USA_ATCF_ID USA_LAT USA_LON USA_RECORD USA_STATUS USA_WIND USA_PRES USA_SSHS USA_R34_NE USA_R34_SE USA_R34_SW USA_R34_NW USA_R50_NE USA_R50_SE USA_R50_SW USA_R50_NW USA_R64_NE USA_R64_SE USA_R64_SW USA_R64_NW USA_POCI USA_ROCI USA_RMW USA_EYE TOKYO_LAT TOKYO_LON TOKYO_GRADE TOKYO_WIND TOKYO_PRES TOKYO_R50_DIR TOKYO_R50_LONG TOKYO_R50_SHORT TOKYO_R30_DIR TOKYO_R30_LONG TOKYO_R30_SHORT TOKYO_LAND CMA_LAT CMA_LON CMA_CAT CMA_WIND CMA_PRES HKO_LAT HKO_LON HKO_CAT HKO_WIND HKO_PRES NEWDELHI_LAT NEWDELHI_LON NEWDELHI_GRADE NEWDELHI_WIND NEWDELHI_PRES NEWDELHI_CI NEWDELHI_DP NEWDELHI_POCI REUNION_LAT REUNION_LON REUNION_TYPE REUNION_WIND REUNION_PRES REUNION_TNUM REUNION_CI REUNION_RMW REUNION_R34_NE REUNION_R34_SE REUNION_R34_SW REUNION_R34_NW REUNION_R50_NE REUNION_R50_SE REUNION_R50_SW REUNION_R50_NW REUNION_R64_NE REUNION_R64_SE REUNION_R64_SW REUNION_R64_NW BOM_LAT BOM_LON BOM_TYPE BOM_WIND BOM_PRES BOM_TNUM BOM_CI BOM_RMW BOM_R34_NE BOM_R34_SE BOM_R34_SW BOM_R34_NW BOM_R50_NE BOM_R50_SE BOM_R50_SW BOM_R50_NW BOM_R64_NE BOM_R64_SE BOM_R64_SW BOM_R64_NW BOM_ROCI BOM_POCI BOM_EYE BOM_POS_METHOD BOM_PRES_METHOD NADI_LAT NADI_LON NADI_CAT NADI_WIND NADI_PRES WELLINGTON_LAT WELLINGTON_LON WELLINGTON_WIND WELLINGTON_PRES DS824_LAT DS824_LON DS824_STAGE DS824_WIND DS824_PRES TD9636_LAT TD9636_LON TD9636_STAGE TD9636_WIND TD9636_PRES TD9635_LAT TD9635_LON TD9635_WIND TD9635_PRES TD9635_ROCI NEUMANN_LAT NEUMANN_LON NEUMANN_CLASS NEUMANN_WIND NEUMANN_PRES MLC_LAT MLC_LON MLC_CLASS MLC_WIND MLC_PRES USA_GUST BOM_GUST BOM_GUST_PER REUNION_GUST REUNION_GUST_PER USA_SEAHGT USA_SEARAD_NE USA_SEARAD_SE USA_SEARAD_SW USA_SEARAD_NW STORM_SPEED STORM_DIR
1984314S08081 1985 111 SI MM NOT_NAMED 1984-11-09 06:00:00 TS -7.70000 80.9000 main 1524 1524 O___________O_ jtwc_sh SH011985 -7.70000 80.9000 XX 20 -5 -7.70000 80.9000 TC 20 11 248
1984314S08081 1985 111 SI MM NOT_NAMED 1984-11-09 09:00:00 TS -7.89760 80.4101 main 1546 1546 P___________P_ SH011985 -7.89760 80.4101 XX 20 -5 -7.89760 80.4101 TC 20 11 248
1984314S08081 1985 111 SI MM NOT_NAMED 1984-11-09 12:00:00 TS -8.10000 79.9000 main 1570 1570 O___________O_ jtwc_sh SH011985 -8.10000 79.9000 XX 20 -5 -8.10000 79.9000 TC 20 11 249
1984314S08081 1985 111 SI MM NOT_NAMED 1984-11-09 15:00:00 TS -8.30746 79.3575 main 1596 1596 P___________P_ SH011985 -8.30746 79.3575 XX 22 -5 -8.30746 79.3575 TC 22 12 250
1984314S08081 1985 111 SI MM NOT_NAMED 1984-11-09 18:00:00 TS -8.50000 78.8000 main 1625 1625 O___________O_ jtwc_sh SH011985 -8.50000 78.8000 XX 25 -5 -8.50000 78.8000 TC 25 12 252
1984314S08081 1985 111 SI MM NOT_NAMED 1984-11-09 21:00:00 TS -8.66492 78.2500 main 1657 1657 P___________P_ SH011985 -8.66492 78.2500 XX 25 -5 -8.66492 78.2500 TC 25 11 255
1984314S08081 1985 111 SI MM NOT_NAMED 1984-11-10 00:00:00 TS -8.80000 77.7000 main 1678 1678 O___________O_ jtwc_sh SH011985 -8.80000 77.7000 XX 25 -5 -8.80000 77.7000 TC 25 11 257
1984314S08081 1985 111 SI MM NOT_NAMED 1984-11-10 03:00:00 TS -8.91488 77.1575 main 1700 1700 P___________P_ SH011985 -8.91488 77.1575 XX 27 -5 -8.91488 77.1575 TC 27 11 260
1984314S08081 1985 111 SI MM NOT_NAMED 1984-11-10 06:00:00 TS -9.00000 76.6000 main 1727 1727 O___________O_ jtwc_sh SH011985 -9.00000 76.6000 XX 30 -5 -9.00000 76.6000 TC 30 11 263
1984314S08081 1985 111 SI MM NOT_NAMED 1984-11-10 09:00:00 TS -9.04994 76.0074 main 1745 1745 P___________P_ SH011985 -9.04994 76.0074 XX 30 -5 -9.04994 76.0074 TC 30 12 265
1984314S08081 1985 111 SI MM NOT_NAMED 1984-11-10 12:00:00 TS -9.10000 75.4000 main 1777 1777 O___________O_ jtwc_sh SH011985 -9.10000 75.4000 XX 30 -5 -9.10000 75.4000 TC 30 12 263
1984314S08081 1985 111 SI MM NOT_NAMED 1984-11-10 15:00:00 TS -9.19240 74.8000 main 1809 1809 P___________P_ SH011985 -9.19240 74.8000 XX 32 -5 -9.19240 74.8000 TC 32 12 260
1984314S08081 1985 111 SI MM NOT_NAMED 1984-11-10 18:00:00 TS -9.30000 74.2000 main 1843 1843 O___________O_ jtwc_sh SH011985 -9.30000 74.2000 XX 35 -5 -9.30000 74.2000 TC 35 12 260
1984314S08081 1985 111 SI MM NOT_NAMED 1984-11-10 21:00:00 TS -9.39244 73.5924 main 1878 1878 P___________P_ SH011985 -9.39244 73.5924 XX 37 -5 -9.39244 73.5924 TC 37 12 260
1984314S08081 1985 111 SI MM NOT_NAMED 1984-11-11 00:00:00 TS -9.50000 73.0000 main 1916 1916 O___________O_ jtwc_sh SH011985 -9.50000 73.0000 XX 40 -5 -9.50000 73.0000 TC 40 12 257
1984314S08081 1985 111 SI MM NOT_NAMED 1984-11-11 03:00:00 TS -9.64988 72.4425 main 1955 1910 P___________P_ SH011985 -9.64988 72.4425 XX 42 -5 -9.64988 72.4425 TC 42 11 255
1984314S08081 1985 111 SI MM NOT_NAMED 1984-11-11 06:00:00 TS -9.80000 71.9000 main 1910 1860 O___________O_ jtwc_sh SH011985 -9.80000 71.9000 XX 45 -5 -9.80000 71.9000 TC 45 11 257
1984314S08081 1985 111 SI MM NOT_NAMED 1984-11-11 09:00:00 TS -9.89991 71.3499 main 1852 1803 P___________P_ SH011985 -9.89991 71.3499 XX 45 -5 -9.89991 71.3499 TC 45 11 260
1984314S08081 1985 111 SI MM NOT_NAMED 1984-11-11 12:00:00 TS -10.0000 70.8000 main 1803 1754 O___________O_ jtwc_sh SH011985 -10.0000 70.8000 XX 45 -5 -10.0000 70.8000 TC 45 11 257
1984314S08081 1985 111 SI MM NOT_NAMED 1984-11-11 15:00:00 TS -10.1424 70.2575 main 1754 1690 P___________P_ SH011985 -10.1424 70.2575 XX 45 -5 -10.1424 70.2575 TC 45 11 255
1984314S08081 1985 111 SI MM NOT_NAMED 1984-11-11 18:00:00 TS -10.3000 69.7000 main 1690 1634 O___________O_ jtwc_sh SH011985 -10.3000 69.7000 XX 45 -5 -10.3000 69.7000 TC 45 12 255
1984314S08081 1985 111 SI MM NOT_NAMED 1984-11-11 21:00:00 TS -10.4424 69.1074 main 1634 1571 P___________P_ SH011985 -10.4424 69.1074 XX 45 -5 -10.4424 69.1074 TC 45 12 256
1984314S08081 1985 111 SI MM NOT_NAMED 1984-11-12 00:00:00 TS -10.6000 68.5000 main 1571 1508 O___________O_ jtwc_sh SH011985 -10.6000 68.5000 XX 45 -5 -10.6000 68.5000 TC 45 12 253
1984314S08081 1985 111 SI MM NOT_NAMED 1984-11-12 03:00:00 TS -10.7998 67.9075 main 1508 1446 P___________P_ SH011985 -10.7998 67.9075 XX 45 -5 -10.7998 67.9075 TC 45 12 251
1984314S08081 1985 111 SI MM NOT_NAMED 1984-11-12 06:00:00 TS -11.0000 67.3000 main 1446 1385 O___________O_ jtwc_sh SH011985 -11.0000 67.3000 XX 45 -5 -11.0000 67.3000 TC 45 13 253
1984314S08081 1985 111 SI MM NOT_NAMED 1984-11-12 09:00:00 TS -11.1649 66.6649 main 1385 1325 P___________P_ SH011985 -11.1649 66.6649 XX 45 -5 -11.1649 66.6649 TC 45 13 257
1984314S08081 1985 111 SI MM NOT_NAMED 1984-11-12 12:00:00 TS -11.3000 66.0000 main 1325 1275 O___________O_ jtwc_sh SH011985 -11.3000 66.0000 XX 45 -5 -11.3000 66.0000 TC 45 13 260
1984314S08081 1985 111 SI MM NOT_NAMED 1984-11-12 15:00:00 TS -11.3997 65.3373 main 1268 1212 P___________P_ SH011985 -11.3997 65.3373 XX 45 -5 -11.3997 65.3373 TC 45 14 262
1984314S08081 1985 111 SI MM NOT_NAMED 1984-11-12 18:00:00 TS -11.5000 64.6000 main 1212 1153 O___________O_ jtwc_sh SH011985 -11.5000 64.6000 XX 45 -5 -11.5000 64.6000 TC 45 16 262
1984314S08081 1985 111 SI MM NOT_NAMED 1984-11-12 21:00:00 TS -11.6350 63.7299 main 1147 1082 P___________P_ SH011985 -11.6350 63.7299 XX 45 -5 -11.6350 63.7299 TC 45 18 260
1984314S08081 1985 111 SI MM NOT_NAMED 1984-11-13 00:00:00 TS -11.8000 62.8000 main 1076 1011 O___________O_ jtwc_sh SH011985 -11.8000 62.8000 XX 45 -5 -11.8000 62.8000 TC 45 18 259
1984314S08081 1985 111 SI MM NOT_NAMED 1984-11-13 03:00:00 TS -11.9848 61.8924 main 1011 951 P___________P_ SH011985 -11.9848 61.8924 XX 42 -5 -11.9848 61.8924 TC 42 18 257
1984314S08081 1985 111 SI MM NOT_NAMED 1984-11-13 06:00:00 TS -12.2000 61.0000 main 951 902 O___________O_ jtwc_sh SH011985 -12.2000 61.0000 XX 40 -5 -12.2000 61.0000 TC 40 18 255
1984314S08081 1985 111 SI MM NOT_NAMED 1984-11-13 09:00:00 TS -12.4422 60.1349 main 899 845 P___________P_ SH011985 -12.4422 60.1349 XX 40 -5 -12.4422 60.1349 TC 40 17 253
1984314S08081 1985 111 SI MM NOT_NAMED 1984-11-13 12:00:00 TS -12.7000 59.3000 main 845 810 O___________O_ jtwc_sh SH011985 -12.7000 59.3000 XX 40 -5 -12.7000 59.3000 TC 40 17 253
1984314S08081 1985 111 SI MM NOT_NAMED 1984-11-13 15:00:00 TS -12.9499 58.4699 main 810 772 P___________P_ SH011985 -12.9499 58.4699 XX 37 -5 -12.9499 58.4699 TC 37 16 252
1984314S08081 1985 111 SI MM NOT_NAMED 1984-11-13 18:00:00 TS -13.2000 57.7000 main 772 729 O___________O_ jtwc_sh SH011985 -13.2000 57.7000 XX 35 -5 -13.2000 57.7000 TC 35 15 250
1984314S08081 1985 111 SI MM NOT_NAMED 1984-11-13 21:00:00 TS -13.4573 57.0050 main 725 657 P___________P_ SH011985 -13.4573 57.0050 XX 32 -5 -13.4573 57.0050 TC 32 14 248
1984314S08081 1985 111 SI MM NOT_NAMED 1984-11-14 00:00:00 TS -13.7000 56.4000 main 657 599 O___________O_ jtwc_sh SH011985 -13.7000 56.4000 XX 30 -5 -13.7000 56.4000 TC 30 12 248
1984314S08081 1985 111 SI MM NOT_NAMED 1984-11-14 03:00:00 TS -13.9073 55.8698 main 599 541 P___________P_ SH011985 -13.9073 55.8698 XX 30 -5 -13.9073 55.8698 TC 30 11 248
1984314S08081 1985 111 SI MM NOT_NAMED 1984-11-14 06:00:00 TS -14.1000 55.4000 main 541 494 O___________O_ jtwc_sh SH011985 -14.1000 55.4000 XX 30 -5 -14.1000 55.4000 TC 30 10 247
1984314S08081 1985 111 SI MM NOT_NAMED 1984-11-14 09:00:00 TS -14.2999 54.9349 main 483 437 P___________P_ SH011985 -14.2999 54.9349 XX 30 -5 -14.2999 54.9349 TC 30 10 245
1984314S08081 1985 111 SI MM NOT_NAMED 1984-11-14 12:00:00 TS -14.5000 54.5000 main 437 390 O___________O_ jtwc_sh SH011985 -14.5000 54.5000 XX 30 -5 -14.5000 54.5000 TC 30 9 244
1984314S08081 1985 111 SI MM NOT_NAMED 1984-11-14 15:00:00 TS -14.7074 54.0850 main 390 345 P___________P_ SH011985 -14.7074 54.0850 XX 30 -5 -14.7074 54.0850 TC 30 9 243
1984314S08081 1985 111 SI MM NOT_NAMED 1984-11-14 18:00:00 TS -14.9000 53.7000 main 345 312 O___________O_ jtwc_sh SH011985 -14.9000 53.7000 XX 30 -5 -14.9000 53.7000 TC 30 8 245
1984314S08081 1985 111 SI MM NOT_NAMED 1984-11-14 21:00:00 TS -15.0499 53.3349 main 301 268 P___________P_ SH011985 -15.0499 53.3349 XX 30 -5 -15.0499 53.3349 TC 30 7 246
1984314S08081 1985 111 SI MM NOT_NAMED 1984-11-15 00:00:00 TS -15.2000 53.0000 main 268 235 O___________O_ jtwc_sh SH011985 -15.2000 53.0000 XX 30 -5 -15.2000 53.0000 TC 30 7 242
1984314S08081 1985 111 SI MM NOT_NAMED 1984-11-15 03:00:00 TS -15.3850 52.6850 main 235 204 P___________P_ SH011985 -15.3850 52.6850 XX 30 -5 -15.3850 52.6850 TC 30 7 235
1984314S08081 1985 111 SI MM NOT_NAMED 1984-11-15 06:00:00 TS -15.6000 52.4000 main 204 185 O___________O_ jtwc_sh SH011985 -15.6000 52.4000 XX 30 -5 -15.6000 52.4000 TC 30 7 229
1984314S08081 1985 111 SI MM NOT_NAMED 1984-11-15 09:00:00 TS -15.8349 52.1424 main 177 169 P___________P_ SH011985 -15.8349 52.1424 XX 30 -5 -15.8349 52.1424 TC 30 7 224
1984314S08081 1985 111 SI MM NOT_NAMED 1984-11-15 12:00:00 TS -16.1000 51.9000 main 169 159 O___________O_ jtwc_sh SH011985 -16.1000 51.9000 XX 30 -5 -16.1000 51.9000 TC 30 7 220
1984314S08081 1985 111 SI MM NOT_NAMED 1984-11-15 15:00:00 TS -16.4000 51.6425 main 154 149 P___________P_ SH011985 -16.4000 51.6425 XX 27 -5 -16.4000 51.6425 TC 27 8 219
1984314S08081 1985 111 SI MM NOT_NAMED 1984-11-15 18:00:00 TS -16.7000 51.4000 main 150 146 O___________O_ jtwc_sh SH011985 -16.7000 51.4000 XX 25 -5 -16.7000 51.4000 TC 25 7 218
1984314S08081 1985 111 SI MM NOT_NAMED 1984-11-15 21:00:00 TS -16.9575 51.1924 main 150 132 P___________P_ SH011985 -16.9575 51.1924 XX 25 -5 -16.9575 51.1924 TC 25 6 218
1984314S08081 1985 111 SI MM NOT_NAMED 1984-11-16 00:00:00 TS -17.2000 51.0000 main 135 125 O___________O_ jtwc_sh SH011985 -17.2000 51.0000 XX 25 -5 -17.2000 51.0000 TC 25 6 217
1984314S08081 1985 111 SI MM NOT_NAMED 1984-11-16 03:00:00 TS -17.4575 50.7925 main 132 116 P___________P_ SH011985 -17.4575 50.7925 XX 25 -5 -17.4575 50.7925 TC 25 6 217
1984314S08081 1985 111 SI MM NOT_NAMED 1984-11-16 06:00:00 TS -17.7000 50.6000 main 116 106 O___________O_ jtwc_sh SH011985 -17.7000 50.6000 XX 25 -5 -17.7000 50.6000 TC 25 6 216
1984314S08081 1985 111 SI MM NOT_NAMED 1984-11-16 09:00:00 TS -17.9074 50.4499 main 97 91 P___________P_ SH011985 -17.9074 50.4499 XX 25 -5 -17.9074 50.4499 TC 25 5 215
1984314S08081 1985 111 SI MM NOT_NAMED 1984-11-16 12:00:00 TS -18.1000 50.3000 main 95 74 O___________O_ jtwc_sh SH011985 -18.1000 50.3000 XX 25 -5 -18.1000 50.3000 TC 25 5 220
1984314S08081 1985 111 SI MM NOT_NAMED 1984-11-16 15:00:00 TS -18.3075 50.1000 main 74 62 P___________P_ SH011985 -18.3075 50.1000 XX 25 -5 -18.3075 50.1000 TC 25 6 223
1984314S08081 1985 111 SI MM NOT_NAMED 1984-11-16 18:00:00 TS -18.5000 49.9000 main 62 57 O___________O_ jtwc_sh SH011985 -18.5000 49.9000 XX 25 -5 -18.5000 49.9000 TC 25 5 223
1984314S08081 1985 111 SI MM NOT_NAMED 1984-11-16 21:00:00 TS -18.6649 49.7499 main 52 43 P___________P_ SH011985 -18.6649 49.7499 XX 25 -5 -18.6649 49.7499 TC 25 4 223
1984314S08081 1985 111 SI MM NOT_NAMED 1984-11-17 00:00:00 TS -18.8000 49.6000 main 43 30 O___________O_ jtwc_sh SH011985 -18.8000 49.6000 XX 25 -5 -18.8000 49.6000 TC 25 4 233
1984314S08081 1985 111 SI MM NOT_NAMED 1984-11-17 03:00:00 TS -18.9076 49.4126 main 30 10 P___________P_ SH011985 -18.9076 49.4126 XX 25 -5 -18.9076 49.4126 TC 25 4 242
1984314S08081 1985 111 SI MM NOT_NAMED 1984-11-17 06:00:00 TS -19.0000 49.2000 main 10 O___________O_ jtwc_sh SH011985 -19.0000 49.2000 XX 25 -5 -19.0000 49.2000 TC 25 4 245

About IBTrACS Database

This database is a web-friendly format of International Best Track Archive for Climate Stewardship (IBTrACS), a global best track data archive curated by NOAA dating back to 1842.

Updated: 2021-12-03